createdAt,value
2022-10-20T00:01:19.012Z,22.12
2022-10-20T00:03:46.238Z,22.11
2022-10-20T00:06:20.218Z,22.10
2022-10-20T00:08:47.670Z,22.11
2022-10-20T00:11:16.189Z,22.10
2022-10-20T00:13:43.500Z,22.10
2022-10-20T00:16:10.185Z,22.11
2022-10-20T00:18:36.940Z,22.09
2022-10-20T00:21:07.408Z,22.10
2022-10-20T00:23:34.070Z,22.09
2022-10-20T00:26:04.495Z,22.09
2022-10-20T00:28:31.087Z,22.08
2022-10-20T00:30:57.860Z,22.07
2022-10-20T00:33:24.912Z,22.07
2022-10-20T00:35:51.910Z,22.08
2022-10-20T00:41:05.430Z,22.07
2022-10-20T00:43:52.215Z,22.06
2022-10-20T00:46:23.497Z,22.06
2022-10-20T00:48:55.313Z,22.06
2022-10-20T00:51:25.170Z,22.06
2022-10-20T00:53:53.594Z,22.07
2022-10-20T00:56:20.682Z,22.04
2022-10-20T00:58:47.641Z,22.05
2022-10-20T01:01:14.746Z,22.05
2022-10-20T01:03:46.936Z,22.04
2022-10-20T01:08:41.897Z,22.03
2022-10-20T01:11:14.577Z,22.03
2022-10-20T01:13:43.963Z,22.03
2022-10-20T01:16:22.063Z,22.02
2022-10-20T01:18:48.619Z,22.03
2022-10-20T01:21:33.764Z,22.01
2022-10-20T01:24:07.878Z,22.01
2022-10-20T01:27:13.039Z,22.00
2022-10-20T01:29:46.517Z,22.01
2022-10-20T01:32:31.901Z,22.00
2022-10-20T01:35:02.212Z,22.02
2022-10-20T01:37:49.093Z,22.03
2022-10-20T01:40:18.854Z,22.02
2022-10-20T01:42:47.302Z,22.01
2022-10-20T01:45:15.494Z,22.01
2022-10-20T01:47:43.162Z,22.02
2022-10-20T01:50:11.119Z,22.00
2022-10-20T01:52:38.126Z,21.98
2022-10-20T01:55:15.264Z,21.98
2022-10-20T01:57:47.986Z,21.97
2022-10-20T02:00:16.128Z,21.96
2022-10-20T02:03:06.505Z,21.97
2022-10-20T02:05:48.470Z,21.96
2022-10-20T02:08:26.732Z,21.95
2022-10-20T02:10:57.080Z,21.96
2022-10-20T02:13:23.839Z,21.96
2022-10-20T02:15:52.612Z,21.96
2022-10-20T02:18:23.201Z,21.94
2022-10-20T02:20:52.417Z,21.94
2022-10-20T02:23:19.291Z,21.94
2022-10-20T02:25:48.629Z,21.93
2022-10-20T02:28:15.851Z,21.93
2022-10-20T02:30:42.992Z,21.92
2022-10-20T02:33:09.763Z,21.93
2022-10-20T02:35:36.440Z,21.92
2022-10-20T02:38:03.557Z,21.92
2022-10-20T02:40:30.355Z,21.93
2022-10-20T02:42:56.987Z,21.93
2022-10-20T02:45:23.599Z,21.93
2022-10-20T02:47:50.302Z,21.93
2022-10-20T02:50:17.303Z,21.92
2022-10-20T02:52:44.057Z,21.93
2022-10-20T02:55:11.487Z,21.91
2022-10-20T02:57:38.588Z,21.92
2022-10-20T03:00:07.914Z,21.91
2022-10-20T03:02:34.765Z,21.91
2022-10-20T03:05:01.406Z,21.90
2022-10-20T03:07:28.103Z,21.90
2022-10-20T03:09:54.899Z,21.89
2022-10-20T03:12:21.546Z,21.89
2022-10-20T03:14:48.166Z,21.89
2022-10-20T03:17:14.859Z,21.89
2022-10-20T03:19:41.600Z,21.88
2022-10-20T03:22:08.268Z,21.88
2022-10-20T03:24:34.861Z,21.89
2022-10-20T03:27:06.101Z,21.87
2022-10-20T03:29:32.849Z,21.87
2022-10-20T03:31:59.413Z,21.87
2022-10-20T03:34:26.053Z,21.86
2022-10-20T03:37:01.975Z,21.86
2022-10-20T03:39:28.594Z,21.85
2022-10-20T03:41:56.198Z,21.86
2022-10-20T03:44:22.811Z,21.84
2022-10-20T03:46:49.376Z,21.84
2022-10-20T03:49:16.125Z,21.84
2022-10-20T03:51:42.724Z,21.84
2022-10-20T03:54:09.895Z,21.83
2022-10-20T03:56:36.537Z,21.82
2022-10-20T04:01:32.547Z,21.82
2022-10-20T04:03:59.175Z,21.83
2022-10-20T04:06:26.129Z,21.83
2022-10-20T04:08:52.824Z,21.83
2022-10-20T04:11:19.577Z,21.82
2022-10-20T04:13:46.290Z,21.82
2022-10-20T04:16:12.936Z,21.80
2022-10-20T04:18:39.570Z,21.81
2022-10-20T04:21:06.363Z,21.81
2022-10-20T04:23:32.952Z,21.81
2022-10-20T04:25:59.654Z,21.81
2022-10-20T04:28:26.538Z,21.80
2022-10-20T04:30:53.177Z,21.80
2022-10-20T04:33:19.755Z,21.80
2022-10-20T04:35:46.433Z,21.80
2022-10-20T04:38:13.086Z,21.79
2022-10-20T04:40:39.747Z,21.80
2022-10-20T04:43:06.327Z,21.79
2022-10-20T04:45:32.941Z,21.79
2022-10-20T04:47:59.553Z,21.79
2022-10-20T04:50:26.258Z,21.79
2022-10-20T04:52:52.814Z,21.80
2022-10-20T04:55:20.415Z,21.79
2022-10-20T04:57:47.153Z,21.79
2022-10-20T05:00:13.961Z,21.78
2022-10-20T05:02:40.664Z,21.77
2022-10-20T05:05:07.413Z,21.77
2022-10-20T05:07:34.312Z,21.77
2022-10-20T05:10:01.240Z,21.77
2022-10-20T05:12:28.604Z,21.78
2022-10-20T05:14:55.396Z,21.77
2022-10-20T05:17:21.955Z,21.76
2022-10-20T05:19:48.513Z,21.76
2022-10-20T05:22:15.082Z,21.76
2022-10-20T05:24:41.708Z,21.74
2022-10-20T05:27:08.328Z,21.74
2022-10-20T05:29:34.881Z,21.73
2022-10-20T05:32:01.475Z,21.74
2022-10-20T05:34:28.147Z,21.74
2022-10-20T05:37:01.845Z,21.73
2022-10-20T05:39:28.424Z,21.74
2022-10-20T05:41:55.036Z,21.72
2022-10-20T05:44:21.597Z,21.72
2022-10-20T05:46:48.198Z,21.72
2022-10-20T05:49:16.788Z,21.72
2022-10-20T05:51:43.949Z,21.71
2022-10-20T05:54:11.766Z,21.71
2022-10-20T05:56:38.315Z,21.70
2022-10-20T05:59:04.864Z,21.70
2022-10-20T06:01:48.595Z,21.69
2022-10-20T06:04:20.175Z,21.68
2022-10-20T06:06:49.067Z,21.67
2022-10-20T06:09:15.787Z,21.68
2022-10-20T06:11:42.325Z,21.67
2022-10-20T06:14:09.316Z,21.67
2022-10-20T06:16:36.395Z,21.67
2022-10-20T06:19:03.360Z,21.68
2022-10-20T06:21:31.103Z,21.68
2022-10-20T06:24:01.311Z,21.73
2022-10-20T06:26:36.533Z,21.79
2022-10-20T06:29:04.946Z,21.83
2022-10-20T06:31:32.893Z,21.87
2022-10-20T06:33:59.793Z,21.91
2022-10-20T06:36:26.730Z,21.94
2022-10-20T06:38:54.481Z,21.96
2022-10-20T06:41:21.392Z,21.99
2022-10-20T06:43:48.053Z,22.02
2022-10-20T06:46:18.302Z,22.04
2022-10-20T06:48:45.415Z,22.02
2022-10-20T06:51:16.304Z,22.07
2022-10-20T06:53:46.534Z,22.11
2022-10-20T06:56:16.805Z,22.03
2022-10-20T06:58:44.310Z,22.03
2022-10-20T07:01:17.108Z,21.98
2022-10-20T07:03:45.149Z,21.97
2022-10-20T07:06:16.314Z,21.98
2022-10-20T07:08:43.261Z,21.97
2022-10-20T07:11:11.981Z,21.99
2022-10-20T07:13:39.347Z,21.98
2022-10-20T07:16:06.642Z,21.96
2022-10-20T07:18:33.359Z,21.95
2022-10-20T07:21:04.903Z,21.93
2022-10-20T07:23:31.985Z,21.91
2022-10-20T07:26:03.068Z,21.96
2022-10-20T07:28:29.886Z,21.99
2022-10-20T07:30:56.562Z,22.03
2022-10-20T07:33:23.320Z,22.05
2022-10-20T07:35:50.306Z,22.05
2022-10-20T07:38:17.065Z,22.05
2022-10-20T07:40:43.643Z,22.04
2022-10-20T07:43:10.259Z,22.02
2022-10-20T07:45:36.851Z,22.02
2022-10-20T07:48:04.446Z,22.02
2022-10-20T07:50:31.153Z,22.05
2022-10-20T07:52:57.787Z,22.08
2022-10-20T07:55:38.072Z,22.09
2022-10-20T07:58:05.480Z,22.08
2022-10-20T08:00:32.182Z,22.11
2022-10-20T08:02:58.971Z,22.10
2022-10-20T08:05:25.599Z,22.09
2022-10-20T08:07:52.561Z,22.11
2022-10-20T08:10:19.246Z,22.11
2022-10-20T08:12:45.965Z,22.11
2022-10-20T08:15:25.908Z,22.10
2022-10-20T08:17:52.535Z,22.10
2022-10-20T08:20:21.299Z,22.11
2022-10-20T08:22:50.231Z,22.10
2022-10-20T08:25:16.930Z,22.11
2022-10-20T08:27:43.589Z,22.14
2022-10-20T08:30:23.490Z,22.18
2022-10-20T08:32:53.070Z,22.20
2022-10-20T08:35:20.043Z,22.22
2022-10-20T08:37:46.677Z,22.25
2022-10-20T08:40:17.500Z,22.30
2022-10-20T08:42:45.433Z,22.33
2022-10-20T08:45:16.588Z,22.36
2022-10-20T08:47:43.791Z,22.39
2022-10-20T08:50:12.666Z,22.42
2022-10-20T08:52:41.179Z,22.45
2022-10-20T08:55:08.378Z,22.47
2022-10-20T08:57:36.487Z,22.50
2022-10-20T09:00:20.836Z,22.52
2022-10-20T09:02:48.513Z,22.56
2022-10-20T09:05:19.111Z,22.57
2022-10-20T09:07:48.550Z,22.59
2022-10-20T09:10:24.155Z,22.60
2022-10-20T09:12:52.212Z,22.62
2022-10-20T09:15:20.018Z,22.64
2022-10-20T09:17:52.747Z,22.66
2022-10-20T09:20:22.584Z,22.68
2022-10-20T09:22:49.523Z,22.68
2022-10-20T09:25:17.936Z,22.70
2022-10-20T09:27:45.469Z,22.71
2022-10-20T09:30:17.776Z,22.72
2022-10-20T09:32:46.921Z,22.73
2022-10-20T09:35:27.940Z,22.74
2022-10-20T09:38:16.428Z,22.75
2022-10-20T09:40:54.906Z,22.75
2022-10-20T09:43:21.609Z,22.76
2022-10-20T09:45:53.552Z,22.76
2022-10-20T09:48:27.380Z,22.78
2022-10-20T09:50:56.335Z,22.78
2022-10-20T09:53:46.865Z,22.80
2022-10-20T09:56:22.858Z,22.79
2022-10-20T09:58:49.553Z,22.80
2022-10-20T10:01:17.968Z,22.80
2022-10-20T10:03:46.234Z,22.81
2022-10-20T10:06:31.298Z,22.81
2022-10-20T10:08:59.761Z,22.89
2022-10-20T10:11:33.142Z,22.79
2022-10-20T10:14:00.325Z,22.77
2022-10-20T10:16:27.437Z,22.79
2022-10-20T10:19:01.954Z,22.79
2022-10-20T10:21:30.444Z,22.80
2022-10-20T10:24:01.262Z,22.78
2022-10-20T10:27:04.308Z,22.78
2022-10-20T10:29:34.616Z,22.77
2022-10-20T10:32:13.298Z,22.75
2022-10-20T10:34:45.839Z,22.74
2022-10-20T10:37:14.304Z,22.72
2022-10-20T10:39:41.759Z,22.71
2022-10-20T10:42:26.375Z,22.68
2022-10-20T10:44:58.965Z,22.68
2022-10-20T10:47:44.552Z,22.67
2022-10-20T10:50:17.199Z,22.65
2022-10-20T10:52:44.269Z,22.65
2022-10-20T10:55:47.926Z,22.63
2022-10-20T10:58:34.676Z,22.61
2022-10-20T11:01:01.288Z,22.61
2022-10-20T11:03:39.847Z,22.60
2022-10-20T11:06:24.009Z,22.59
2022-10-20T11:08:53.718Z,22.59
2022-10-20T11:11:27.749Z,22.58
2022-10-20T11:14:06.646Z,22.57
2022-10-20T11:17:08.023Z,22.57
2022-10-20T11:19:34.737Z,22.57
2022-10-20T11:22:09.439Z,22.56
2022-10-20T11:24:39.765Z,22.55
2022-10-20T11:27:20.957Z,22.54
2022-10-20T11:29:50.076Z,22.52
2022-10-20T11:32:20.978Z,22.52
2022-10-20T11:34:55.714Z,22.51
2022-10-20T11:37:26.637Z,22.50
2022-10-20T11:40:11.504Z,22.48
2022-10-20T11:42:52.880Z,22.46
2022-10-20T11:45:22.423Z,22.45
2022-10-20T11:47:51.072Z,22.43
2022-10-20T11:50:18.810Z,22.41
2022-10-20T11:52:45.370Z,22.39
2022-10-20T11:55:12.791Z,22.39
2022-10-20T11:58:01.128Z,22.38
2022-10-20T12:00:31.475Z,22.36
2022-10-20T12:03:10.321Z,22.35
2022-10-20T12:05:55.856Z,22.33
2022-10-20T12:08:37.561Z,22.30
2022-10-20T12:11:17.877Z,22.30
2022-10-20T12:13:47.593Z,22.29
2022-10-20T12:16:34.138Z,22.27
2022-10-20T12:19:15.268Z,22.26
2022-10-20T12:22:00.464Z,22.26
2022-10-20T12:24:31.312Z,22.26
2022-10-20T12:27:09.385Z,22.25
2022-10-20T12:29:35.979Z,22.26
2022-10-20T12:32:21.625Z,22.24
2022-10-20T12:34:49.245Z,22.25
2022-10-20T12:37:24.808Z,22.23
2022-10-20T12:39:52.933Z,22.23
2022-10-20T12:42:19.575Z,22.22
2022-10-20T12:44:46.735Z,22.21
2022-10-20T12:47:42.582Z,22.20
2022-10-20T12:50:20.998Z,22.18
2022-10-20T12:52:47.638Z,22.19
2022-10-20T12:55:19.991Z,22.18
2022-10-20T12:57:47.233Z,22.17
2022-10-20T13:00:20.056Z,22.16
2022-10-20T13:02:48.115Z,22.15
2022-10-20T13:05:14.676Z,22.14
2022-10-20T13:07:47.941Z,22.13
2022-10-20T13:10:26.843Z,22.13
2022-10-20T13:12:54.495Z,22.12
2022-10-20T13:15:22.408Z,22.11
2022-10-20T13:17:55.943Z,22.11
2022-10-20T13:20:28.274Z,22.10
2022-10-20T13:22:55.944Z,22.09
2022-10-20T13:25:28.424Z,22.08
2022-10-20T13:28:06.131Z,22.08
2022-10-20T13:30:34.715Z,22.08
2022-10-20T13:33:33.863Z,22.09
2022-10-20T13:36:06.882Z,22.05
2022-10-20T13:38:39.573Z,22.06
2022-10-20T13:41:11.936Z,22.08
2022-10-20T13:44:02.971Z,22.08
2022-10-20T13:46:32.304Z,22.11
2022-10-20T13:49:10.658Z,22.11
2022-10-20T13:52:03.476Z,22.11
2022-10-20T13:54:34.763Z,22.11
2022-10-20T13:57:08.517Z,22.11
2022-10-20T13:59:35.183Z,22.11
2022-10-20T14:02:22.838Z,22.11
2022-10-20T14:05:01.402Z,22.11
2022-10-20T14:07:35.478Z,22.10
2022-10-20T14:10:02.089Z,22.09
2022-10-20T14:12:28.790Z,22.08
2022-10-20T14:15:01.535Z,22.10
2022-10-20T14:17:28.952Z,22.08
2022-10-20T14:20:14.124Z,22.07
2022-10-20T14:22:43.997Z,22.07
2022-10-20T14:25:11.576Z,22.06
2022-10-20T14:27:38.807Z,22.04
2022-10-20T14:30:06.510Z,22.03
2022-10-20T14:32:35.586Z,22.02
2022-10-20T14:35:04.160Z,22.01
2022-10-20T14:37:41.391Z,22.03
2022-10-20T14:40:18.283Z,22.05
2022-10-20T14:42:45.452Z,22.04
2022-10-20T14:45:25.910Z,22.03
2022-10-20T14:47:53.449Z,22.01
2022-10-20T14:50:24.885Z,21.99
2022-10-20T14:52:54.198Z,21.98
2022-10-20T14:55:41.382Z,21.98
2022-10-20T14:58:26.943Z,21.97
2022-10-20T15:01:13.399Z,21.95
2022-10-20T15:03:40.137Z,21.94
2022-10-20T15:06:13.747Z,21.93
2022-10-20T15:08:52.393Z,21.92
2022-10-20T15:11:27.451Z,21.91
2022-10-20T15:13:55.580Z,21.91
2022-10-20T15:16:40.896Z,21.89
2022-10-20T15:19:25.561Z,21.90
2022-10-20T15:22:01.926Z,21.88
2022-10-20T15:24:28.925Z,21.87
2022-10-20T15:27:11.755Z,21.88
2022-10-20T15:29:39.220Z,21.86
2022-10-20T15:32:05.958Z,21.84
2022-10-20T15:34:32.706Z,21.84
2022-10-20T15:37:07.594Z,21.83
2022-10-20T15:39:35.787Z,21.83
2022-10-20T15:42:05.697Z,21.82
2022-10-20T15:44:32.487Z,21.81
2022-10-20T15:47:11.576Z,21.79
2022-10-20T15:49:38.391Z,21.80
2022-10-20T15:52:05.090Z,21.83
2022-10-20T15:54:31.804Z,21.83
2022-10-20T15:57:08.221Z,21.83
2022-10-20T15:59:35.025Z,21.81
2022-10-20T16:02:03.026Z,21.79
2022-10-20T16:04:31.673Z,21.79
2022-10-20T16:07:08.906Z,21.80
2022-10-20T16:09:35.689Z,21.80
2022-10-20T16:12:02.422Z,21.80
2022-10-20T16:14:29.270Z,21.78
2022-10-20T16:17:06.164Z,21.77
2022-10-20T16:19:33.039Z,21.78
2022-10-20T16:21:59.793Z,21.76
2022-10-20T16:24:26.483Z,21.73
2022-10-20T16:26:53.425Z,21.73
2022-10-20T16:29:20.213Z,21.74
2022-10-20T16:31:48.274Z,21.73
2022-10-20T16:34:14.978Z,21.71
2022-10-20T16:36:41.749Z,21.70
2022-10-20T16:39:08.827Z,21.70
2022-10-20T16:41:35.524Z,21.69
2022-10-20T16:44:02.164Z,21.68
2022-10-20T16:46:29.021Z,21.68
2022-10-20T16:48:57.529Z,21.68
2022-10-20T16:51:24.262Z,21.68
2022-10-20T16:53:51.004Z,21.66
2022-10-20T16:56:20.072Z,21.65
2022-10-20T16:58:48.569Z,21.64
2022-10-20T17:01:16.665Z,21.63
2022-10-20T17:03:45.114Z,21.63
2022-10-20T17:06:12.032Z,21.62
2022-10-20T17:08:38.851Z,21.61
2022-10-20T17:11:07.344Z,21.59
2022-10-20T17:13:34.751Z,21.60
2022-10-20T17:16:07.655Z,21.60
2022-10-20T17:18:34.429Z,21.60
2022-10-20T17:21:01.200Z,21.57
2022-10-20T17:23:28.077Z,21.56
2022-10-20T17:25:58.589Z,21.56
2022-10-20T17:28:25.403Z,21.55
2022-10-20T17:30:53.366Z,21.55
2022-10-20T17:33:20.109Z,21.54
2022-10-20T17:35:49.959Z,21.53
2022-10-20T17:38:16.810Z,21.53
2022-10-20T17:40:43.585Z,21.53
2022-10-20T17:43:10.475Z,21.52
2022-10-20T17:45:38.188Z,21.51
2022-10-20T17:48:05.607Z,21.50
2022-10-20T17:50:32.396Z,21.49
2022-10-20T17:53:00.479Z,21.49
2022-10-20T17:55:27.273Z,21.48
2022-10-20T17:57:54.085Z,21.49
2022-10-20T18:00:31.726Z,21.49
2022-10-20T18:03:08.185Z,21.48
2022-10-20T18:05:37.677Z,21.47
2022-10-20T18:08:04.468Z,21.45
2022-10-20T18:10:31.297Z,21.45
2022-10-20T18:12:58.000Z,21.44
2022-10-20T18:15:24.645Z,21.44
2022-10-20T18:17:51.290Z,21.44
2022-10-20T18:20:18.004Z,21.41
2022-10-20T18:22:45.733Z,21.41
2022-10-20T18:25:12.359Z,21.41
2022-10-20T18:27:38.959Z,21.40
2022-10-20T18:30:05.928Z,21.40
2022-10-20T18:32:32.547Z,21.39
2022-10-20T18:34:59.307Z,21.37
2022-10-20T18:37:25.962Z,21.38
2022-10-20T18:39:52.600Z,21.36
2022-10-20T18:42:19.182Z,21.35
2022-10-20T18:44:45.817Z,21.36
2022-10-20T18:47:12.506Z,21.34
2022-10-20T18:49:39.111Z,21.33
2022-10-20T18:52:05.762Z,21.34
2022-10-20T18:54:32.350Z,21.32
2022-10-20T18:57:04.413Z,21.31
2022-10-20T18:59:31.208Z,21.30
2022-10-20T19:01:57.794Z,21.29
2022-10-20T19:04:24.455Z,21.29
2022-10-20T19:06:51.456Z,21.29
2022-10-20T19:09:19.595Z,21.29
2022-10-20T19:11:47.164Z,21.29
2022-10-20T19:14:14.297Z,21.30
2022-10-20T19:16:42.380Z,21.28
2022-10-20T19:19:09.627Z,21.29
2022-10-20T19:21:36.462Z,21.29
2022-10-20T19:24:07.870Z,21.32
2022-10-20T19:26:36.512Z,21.25
2022-10-20T19:29:05.840Z,21.29
2022-10-20T19:31:46.105Z,21.28
2022-10-20T19:34:18.535Z,21.28
2022-10-20T19:36:48.119Z,21.28
2022-10-20T19:39:16.391Z,21.26
2022-10-20T19:41:43.076Z,21.23
2022-10-20T19:44:15.530Z,21.24
2022-10-20T19:46:46.585Z,21.23
2022-10-20T19:49:13.794Z,21.23
2022-10-20T19:51:40.647Z,21.25
2022-10-20T19:54:07.499Z,21.24
2022-10-20T19:56:34.901Z,21.23
2022-10-20T19:59:02.202Z,21.25
2022-10-20T20:01:28.936Z,21.26
2022-10-20T20:03:55.618Z,21.26
2022-10-20T20:06:22.425Z,21.26
2022-10-20T20:09:16.880Z,21.25
2022-10-20T20:12:03.300Z,21.26
2022-10-20T20:14:54.185Z,21.25
2022-10-20T20:17:33.482Z,21.25
2022-10-20T20:20:19.950Z,21.26
2022-10-20T20:22:46.829Z,21.26
2022-10-20T20:27:46.090Z,21.25
2022-10-20T20:41:24.346Z,21.22
2022-10-20T20:43:50.964Z,21.22
2022-10-20T20:46:18.821Z,21.22
2022-10-20T20:48:45.902Z,21.20
2022-10-20T20:51:13.120Z,21.21
2022-10-20T20:53:40.391Z,21.20
2022-10-20T20:56:08.431Z,21.19
2022-10-20T20:58:35.245Z,21.20
2022-10-20T21:01:02.934Z,21.19
2022-10-20T21:03:29.778Z,21.18
2022-10-20T21:05:56.411Z,21.18
2022-10-20T21:08:23.061Z,21.17
2022-10-20T21:10:49.673Z,21.19
2022-10-20T21:13:16.352Z,21.18
2022-10-20T21:15:42.993Z,21.17
2022-10-20T21:18:09.601Z,21.17
2022-10-20T21:20:36.188Z,21.16
2022-10-20T21:23:02.755Z,21.17
2022-10-20T21:25:29.327Z,21.15
2022-10-20T21:27:56.068Z,21.16
2022-10-20T21:30:22.712Z,21.16
2022-10-20T21:32:49.372Z,21.16
2022-10-20T21:35:18.139Z,21.15
2022-10-20T21:37:44.760Z,21.16
2022-10-20T21:40:11.660Z,21.16
2022-10-20T21:42:38.466Z,21.14
2022-10-20T21:45:05.473Z,21.13
2022-10-20T21:47:32.088Z,21.14
2022-10-20T21:49:58.703Z,21.15
2022-10-20T21:52:25.372Z,21.13
2022-10-20T21:54:51.949Z,21.12
2022-10-20T21:57:18.548Z,21.11
2022-10-20T21:59:50.594Z,21.12
2022-10-20T22:02:17.205Z,21.11
2022-10-20T22:04:43.823Z,21.11
2022-10-20T22:07:10.389Z,21.10
2022-10-20T22:09:36.954Z,21.10
2022-10-20T22:12:03.757Z,21.10
2022-10-20T22:14:30.814Z,21.10
2022-10-20T22:17:06.825Z,21.09
2022-10-20T22:19:33.441Z,21.08
2022-10-20T22:22:00.065Z,21.08
2022-10-20T22:24:27.977Z,21.08
2022-10-20T22:27:00.663Z,21.09
2022-10-20T22:29:28.850Z,21.07
2022-10-20T22:31:55.456Z,21.06
2022-10-20T22:34:22.080Z,21.08
2022-10-20T22:36:48.905Z,21.08
2022-10-20T22:39:15.601Z,21.08
2022-10-20T22:41:42.308Z,21.07
2022-10-20T22:44:09.446Z,21.07
2022-10-20T22:46:36.929Z,21.07
2022-10-20T22:49:03.736Z,21.11
2022-10-20T22:51:30.419Z,21.13
2022-10-20T22:53:57.084Z,21.16
2022-10-20T22:56:24.011Z,21.18
2022-10-20T22:58:52.576Z,21.19
2022-10-20T23:01:21.244Z,21.21
2022-10-20T23:03:48.075Z,21.23
2022-10-20T23:06:16.545Z,21.26
2022-10-20T23:08:54.273Z,21.28
2022-10-20T23:11:21.548Z,21.29
2022-10-20T23:13:48.245Z,21.31
2022-10-20T23:16:15.366Z,21.34
2022-10-20T23:18:42.237Z,21.34
2022-10-20T23:21:08.911Z,21.36
2022-10-20T23:23:36.794Z,21.35
2022-10-20T23:26:04.779Z,21.37
2022-10-20T23:28:31.742Z,21.36
2022-10-20T23:31:07.879Z,21.38
2022-10-20T23:33:34.556Z,21.37
2022-10-20T23:36:01.439Z,21.39
2022-10-20T23:38:28.090Z,21.39
2022-10-20T23:40:54.702Z,21.39
2022-10-20T23:43:21.354Z,21.38
2022-10-20T23:45:47.949Z,21.40
2022-10-20T23:48:14.657Z,21.39
2022-10-20T23:50:42.672Z,21.39
2022-10-20T23:53:09.366Z,21.40
2022-10-20T23:55:35.950Z,21.39
2022-10-20T23:58:02.576Z,21.39
